Lawndale, NC (28090)

8:20 AM EST on February 12, 2016 (GMT -0500)
182 | | Change Station
CLOSE
Current Station
Personal Weather Station
Location: Lawndale, NC
Elevation: 971 ft
Nearby Weather Stations

Elev 971 ft 35.43 °N, 81.47 °W | Updated 3 seconds ago

Partly Cloudy
Partly Cloudy
29.5 °F
Feels Like 22 °F
N
7.6
Wind Variable Wind from NE
Gusts 10.7 mph

Today
High -- | Low -- °F
--% Chance of Precip.
Yesterday
High -- | Low -- °F
Precip. -- in
Pressure 30.19 in
Visibility 10.0 miles
Clouds Scattered Clouds 12000 ft
Windchill 22 °F
Dew Point 15 °F
Humidity 55%
Rainfall 0.00 in
Snow Depth Not available.
7:16 AM 6:04 PM
Waxing Crescent, 20% visible
METAR KEHO 121315Z AUTO 05005KT 10SM SCT120 M01/M10 A3019 RMK AO2 T10131102
Pressure 30.19 in
Visibility 10.0 miles
Clouds Scattered Clouds 12000 ft
Windchill 22 °F
Dew Point 15 °F
Humidity 55%
Rainfall 0.00 in
Snow Depth Not available.
7:16 AM 6:04 PM
Waxing Crescent, 20% visible
METAR KEHO 121315Z AUTO 05005KT 10SM SCT120 M01/M10 A3019 RMK AO2 T10131102

10-Day Weather Forecast

Almanac

Astronomy

Feb. 12, 2016 Rise Set
Actual Time
Civil Twilight
Nautical Twilight
Astronomical Twilight
Moon
Length of Visible Light
Length of Day
Tomorrow will be .
, % of the Moon is Illuminated

Today's Extremes

State Highs State Lows

Community

WunderPhotos

Upload Photos

1,892,309 photos uploaded!

WunderBlog® & News

Nearby

Air Quality

  Air Quality AQ Index Pollutant
Not available.

Snow Depth

Station Depth Elevation

Earthquake Activity

City Distance Mag. Time & Date
Minimum magnitude displayed is 2.5.

Coastal Water Temperatures

Place Temperature

Stations

Nearby Weather Stations

Station Location Temp. Windchill Dew Point Humidity Wind Precip. Elev Updated Type
                   

Watches & Warnings

There are currently no watches in effect.